Airport View

Enter AWOS ICAO identifier for current METAR.

ex. KFNL

KCTJ 280335Z AUTO 17004KT 10SM OVC010 21/20 A2998 RMK AO2 T02080195

28 Sep 2020 03:55

Frequency: 118.175

Phone: 770-214-9667

Other Area AWOS: KPUJ - KCCO - KFTY - KVPC

TAF KFTY 272344Z 2800/2824 17007KT P6SM VCSH SCT015 BKN050 FM280300 17004KT P6SM BKN015 FM280500 17003KT P6SM OVC008 TEMPO 2810/2813 4SM BR OVC004 FM281400 21005KT P6SM SCT006 BKN010 FM281600 21006KT P6SM SCT015 BKN022 FM281800 21008KT P6SM SCT025 BKN050